Time;durP1;ratioP1;P1;durP2;ratioP2;P2;SDS_P1;SDS_P2;PMS_P1;PMS_P2;Temp;Humidity;BMP_temperature;BMP_pressure;BME280_temperature;BME280_humidity;BME280_pressure;Samples;Min_cycle;Max_cycle;Signal;HPM_P1;HPM_P2
2022/01/05 00:01:32;;;;;;;1.67;1.30;;;8.00;99.90;;;;;;5028910;28;20490;-81
2022/01/05 00:03:58;;;;;;;2.78;0.90;;;8.00;99.90;;;;;;5029315;28;20033;-81
2022/01/05 00:06:23;;;;;;;1.00;0.80;;;8.00;99.90;;;;;;5028639;28;20443;-81
2022/01/05 00:08:49;;;;;;;1.40;1.30;;;7.90;99.90;;;;;;5020691;28;20033;-80
2022/01/05 00:11:15;;;;;;;0.82;0.70;;;7.90;99.90;;;;;;5027239;28;20474;-80
2022/01/05 00:13:42;;;;;;;1.73;0.90;;;7.90;99.90;;;;;;5026355;28;20391;-80
2022/01/05 00:16:08;;;;;;;1.58;0.77;;;7.90;99.90;;;;;;5026638;28;20027;-81
2022/01/05 00:18:34;;;;;;;3.25;1.63;;;7.90;99.90;;;;;;5029422;28;20433;-81
2022/01/05 00:21:01;;;;;;;2.42;0.90;;;7.90;99.90;;;;;;5024509;28;20490;-80
2022/01/05 00:23:27;;;;;;;1.73;1.15;;;7.90;99.90;;;;;;5031989;28;20026;-80
2022/01/05 00:25:52;;;;;;;2.40;0.75;;;7.90;99.90;;;;;;5028006;28;20113;-80
2022/01/05 00:28:18;;;;;;;2.30;1.20;;;7.90;99.90;;;;;;5027481;28;20037;-81
2022/01/05 00:30:44;;;;;;;2.03;0.90;;;7.80;99.90;;;;;;5028747;28;20029;-81
2022/01/05 00:33:10;;;;;;;1.98;0.93;;;7.80;99.90;;;;;;5027592;28;20029;-80
2022/01/05 00:35:35;;;;;;;1.67;0.90;;;7.90;99.90;;;;;;5033818;28;20485;-80
2022/01/05 00:38:01;;;;;;;2.08;1.02;;;7.90;99.90;;;;;;5023281;28;20056;-80
2022/01/05 00:40:27;;;;;;;3.17;0.82;;;7.80;99.90;;;;;;5018524;28;20037;-81
2022/01/05 00:42:53;;;;;;;2.42;0.98;;;7.80;99.90;;;;;;5024963;28;20032;-81
2022/01/05 00:45:19;;;;;;;4.97;1.00;;;7.80;99.90;;;;;;5018942;28;20605;-81
2022/01/05 00:47:44;;;;;;;3.45;0.95;;;7.80;99.90;;;;;;5031585;28;20026;-80
2022/01/05 00:50:10;;;;;;;6.97;1.60;;;7.70;99.90;;;;;;5024652;28;20510;-81
2022/01/05 00:52:36;;;;;;;1.98;1.10;;;7.80;99.90;;;;;;5024827;28;20154;-81
2022/01/05 00:55:02;;;;;;;3.97;1.67;;;7.70;99.90;;;;;;5025936;28;20071;-81
2022/01/05 00:57:28;;;;;;;3.47;1.60;;;7.80;99.90;;;;;;5015891;28;20026;-81
2022/01/05 00:59:53;;;;;;;3.20;1.23;;;7.80;99.90;;;;;;5030214;28;20418;-81
2022/01/05 01:02:19;;;;;;;2.47;1.73;;;7.80;99.90;;;;;;5028044;28;20116;-80
2022/01/05 01:04:45;;;;;;;2.10;1.30;;;7.70;99.90;;;;;;5026511;28;20407;-80
2022/01/05 01:07:11;;;;;;;2.85;1.45;;;7.70;99.90;;;;;;5025895;28;20022;-80
2022/01/05 01:09:37;;;;;;;4.10;1.55;;;7.70;99.90;;;;;;5026247;28;20022;-80
2022/01/05 01:12:04;;;;;;;1.60;0.90;;;7.80;99.90;;;;;;5023741;28;20037;-81
2022/01/05 01:14:29;;;;;;;1.55;0.90;;;7.70;99.90;;;;;;5029178;28;20057;-81
2022/01/05 01:16:55;;;;;;;1.17;0.95;;;7.70;99.90;;;;;;5029098;28;20469;-80
2022/01/05 01:19:22;;;;;;;5.72;1.65;;;7.70;99.90;;;;;;5027177;28;20029;-80
2022/01/05 01:21:48;;;;;;;0.80;0.77;;;7.80;99.90;;;;;;5030166;28;20109;-81
2022/01/05 01:24:13;;;;;;;3.33;1.00;;;7.80;99.90;;;;;;5028095;28;20113;-80
2022/01/05 01:26:39;;;;;;;2.42;0.93;;;7.80;99.90;;;;;;5023472;28;20397;-79
2022/01/05 01:29:05;;;;;;;2.05;1.08;;;7.80;99.90;;;;;;5021513;28;20038;-80
2022/01/05 01:31:31;;;;;;;0.93;0.80;;;7.70;99.90;;;;;;5024865;28;20038;-80
2022/01/05 01:33:56;;;;;;;1.90;0.90;;;7.80;99.90;;;;;;5024445;28;20039;-79
2022/01/05 01:36:22;;;;;;;3.42;0.98;;;7.70;99.90;;;;;;5012927;28;20101;-80
2022/01/05 01:38:48;;;;;;;1.25;0.70;;;7.70;99.90;;;;;;5026541;28;20046;-80
2022/01/05 01:41:14;;;;;;;2.35;1.00;;;7.70;99.90;;;;;;5018879;28;20539;-80
2022/01/05 01:43:39;;;;;;;1.58;0.70;;;7.70;99.90;;;;;;5024024;28;20025;-80
2022/01/05 01:46:07;;;;;;;6.32;1.23;;;7.70;99.90;;;;;;5025194;28;20034;-79
2022/01/05 01:48:32;;;;;;;4.43;1.15;;;7.70;99.90;;;;;;5025955;28;20026;-80
2022/01/05 01:50:58;;;;;;;2.97;0.88;;;7.70;99.90;;;;;;5027125;28;20033;-81
2022/01/05 01:53:24;;;;;;;1.60;0.70;;;7.70;99.90;;;;;;5024043;28;20455;-80
2022/01/05 01:55:50;;;;;;;2.25;0.90;;;7.70;99.90;;;;;;5024005;28;20044;-81
2022/01/05 01:58:21;;;;;;;4.65;2.13;;;7.70;99.90;;;;;;5026298;28;20030;-80
2022/01/05 02:00:47;;;;;;;2.10;1.00;;;7.70;99.90;;;;;;5025770;28;20026;-81
2022/01/05 02:03:14;;;;;;;2.38;1.10;;;7.70;99.90;;;;;;5026709;28;20499;-81
2022/01/05 02:05:40;;;;;;;1.75;0.80;;;7.70;99.90;;;;;;5029505;28;20076;-80
2022/01/05 02:08:06;;;;;;;1.83;1.17;;;7.60;99.90;;;;;;5022810;28;20037;-80
2022/01/05 02:10:32;;;;;;;2.88;0.98;;;7.50;99.90;;;;;;5025784;28;20132;-80
2022/01/05 02:12:58;;;;;;;1.90;0.80;;;7.50;99.90;;;;;;5026738;28;20544;-80
2022/01/05 02:15:24;;;;;;;2.17;0.90;;;7.40;99.90;;;;;;5024351;28;20108;-80
2022/01/05 02:17:57;;;;;;;2.45;0.90;;;7.40;99.90;;;;;;5026961;28;20589;-80
2022/01/05 02:20:27;;;;;;;2.47;0.90;;;7.40;99.90;;;;;;5018826;28;20036;-80
2022/01/05 02:22:53;;;;;;;2.83;1.27;;;7.30;99.90;;;;;;5025815;28;20021;-80
2022/01/05 02:25:19;;;;;;;1.65;0.80;;;7.30;99.90;;;;;;5025079;28;20095;-80
2022/01/05 02:27:47;;;;;;;3.47;0.90;;;7.20;99.90;;;;;;5026176;28;20048;-80
2022/01/05 02:30:19;;;;;;;1.45;0.77;;;7.20;99.90;;;;;;5029389;28;20057;-79
2022/01/05 02:32:45;;;;;;;2.05;1.15;;;7.30;99.90;;;;;;5029969;28;20017;-80
2022/01/05 02:35:11;;;;;;;2.20;1.05;;;7.30;99.90;;;;;;5025361;28;20037;-80
2022/01/05 02:37:45;;;;;;;1.48;1.00;;;7.30;99.90;;;;;;5031293;28;20556;-79
2022/01/05 02:40:14;;;;;;;3.97;0.73;;;7.30;99.90;;;;;;5031781;28;20208;-80
2022/01/05 02:42:40;;;;;;;1.48;0.80;;;7.30;99.90;;;;;;5029260;28;20039;-79
2022/01/05 02:45:07;;;;;;;3.72;1.13;;;7.30;99.90;;;;;;5029755;28;20017;-79
2022/01/05 02:47:32;;;;;;;3.35;0.88;;;7.30;99.90;;;;;;5032145;28;20034;-81
2022/01/05 02:49:59;;;;;;;1.55;0.75;;;7.40;99.90;;;;;;5027081;28;20025;-80
2022/01/05 02:52:25;;;;;;;1.20;0.82;;;7.40;99.90;;;;;;5025279;28;20080;-80
2022/01/05 02:54:51;;;;;;;2.55;0.93;;;7.50;99.90;;;;;;5030989;28;20083;-80
2022/01/05 02:57:17;;;;;;;2.80;1.00;;;7.60;99.90;;;;;;5021660;28;20034;-80
2022/01/05 02:59:43;;;;;;;4.13;1.55;;;7.50;99.90;;;;;;5023253;28;20033;-82
2022/01/05 03:02:09;;;;;;;4.20;1.02;;;7.50;99.90;;;;;;5028626;28;20572;-81
2022/01/05 03:04:35;;;;;;;1.95;1.13;;;7.40;99.90;;;;;;5025456;28;20105;-82
2022/01/05 03:07:00;;;;;;;4.65;0.90;;;7.40;99.90;;;;;;5018598;28;20511;-81
2022/01/05 03:09:26;;;;;;;1.42;0.57;;;7.40;99.90;;;;;;5028083;28;20536;-81
2022/01/05 03:11:52;;;;;;;6.45;0.73;;;7.30;99.90;;;;;;5029616;28;20026;-82
2022/01/05 03:14:19;;;;;;;2.08;1.23;;;7.30;99.90;;;;;;5029431;28;20544;-82
2022/01/05 03:16:45;;;;;;;3.30;0.90;;;7.30;99.90;;;;;;5024346;28;20080;-82
2022/01/05 03:19:10;;;;;;;0.50;0.40;;;7.30;99.90;;;;;;5028195;28;20033;-82
2022/01/05 03:21:36;;;;;;;1.73;0.60;;;7.30;99.90;;;;;;5027000;28;20490;-82
2022/01/05 03:24:02;;;;;;;1.77;0.52;;;7.30;99.90;;;;;;5029100;28;20486;-80
2022/01/05 03:26:28;;;;;;;3.45;0.73;;;7.20;99.90;;;;;;5032685;28;20029;-81
2022/01/05 03:28:53;;;;;;;4.18;0.90;;;7.30;99.90;;;;;;5028081;28;20070;-81
2022/01/05 03:31:19;;;;;;;1.55;0.95;;;7.20;99.90;;;;;;5025382;28;20030;-80
2022/01/05 03:33:45;;;;;;;2.33;0.80;;;7.20;99.90;;;;;;5030702;28;20405;-81
2022/01/05 03:36:11;;;;;;;1.48;0.73;;;7.30;99.90;;;;;;5024461;28;20021;-81
2022/01/05 03:38:36;;;;;;;1.08;0.75;;;7.20;99.90;;;;;;5023046;28;20533;-82
2022/01/05 03:41:02;;;;;;;3.90;1.10;;;7.30;99.90;;;;;;5028119;28;20556;-80
2022/01/05 03:43:28;;;;;;;1.92;0.70;;;7.20;99.90;;;;;;5027860;28;20032;-81
2022/01/05 03:45:54;;;;;;;6.07;0.60;;;7.20;99.90;;;;;;5031659;28;20025;-82
2022/01/05 03:48:20;;;;;;;1.13;0.65;;;7.30;99.90;;;;;;5027281;28;20398;-82
2022/01/05 03:50:54;;;;;;;;;;;7.20;99.90;;;;;;5028715;28;20053;-82
2022/01/05 03:53:19;;;;;;;1.40;0.85;;;7.20;99.90;;;;;;5027562;28;19913;-82
2022/01/05 03:55:46;;;;;;;4.25;1.00;;;7.20;99.90;;;;;;5030668;28;20029;-81
2022/01/05 03:58:13;;;;;;;2.30;1.13;;;7.20;99.90;;;;;;5027651;28;20075;-82
2022/01/05 04:00:43;;;;;;;2.42;0.88;;;7.30;99.90;;;;;;5020020;28;20028;-83
2022/01/05 04:03:09;;;;;;;6.75;1.15;;;7.20;99.90;;;;;;5030710;28;20029;-81
2022/01/05 04:05:35;;;;;;;3.30;1.00;;;7.20;99.90;;;;;;5030816;28;20025;-81
2022/01/05 04:08:00;;;;;;;3.17;0.80;;;7.10;99.90;;;;;;5024325;28;20038;-81
2022/01/05 04:10:26;;;;;;;3.38;0.80;;;7.10;99.90;;;;;;5020428;28;20029;-82
2022/01/05 04:12:52;;;;;;;4.40;0.95;;;7.10;99.90;;;;;;5026786;28;20487;-81
2022/01/05 04:15:18;;;;;;;2.15;0.88;;;7.00;99.90;;;;;;5028520;28;20164;-82
2022/01/05 04:17:44;;;;;;;2.95;1.40;;;7.00;99.90;;;;;;5030912;28;20116;-82
2022/01/05 04:20:13;;;;;;;4.15;0.90;;;6.90;99.90;;;;;;5029450;28;20108;-82
2022/01/05 04:22:39;;;;;;;2.95;0.75;;;6.90;99.90;;;;;;5027403;28;20063;-82
2022/01/05 04:25:05;;;;;;;4.85;0.80;;;6.90;99.90;;;;;;5025273;28;20017;-81
2022/01/05 04:27:31;;;;;;;1.35;0.68;;;6.80;99.90;;;;;;5027759;28;20100;-81
2022/01/05 04:29:57;;;;;;;2.17;0.90;;;6.70;99.90;;;;;;5027845;28;20486;-81
2022/01/05 04:32:23;;;;;;;2.17;0.63;;;6.70;99.90;;;;;;5027617;28;20473;-82
2022/01/05 04:34:48;;;;;;;1.50;1.40;;;6.70;99.90;;;;;;5026186;28;20503;-81
2022/01/05 04:37:14;;;;;;;3.30;0.80;;;6.70;99.90;;;;;;5027132;28;20038;-81
2022/01/05 04:39:40;;;;;;;3.95;0.70;;;6.70;99.90;;;;;;5025487;28;20112;-81
2022/01/05 04:42:06;;;;;;;2.55;0.73;;;6.70;99.90;;;;;;5029601;28;20026;-81
2022/01/05 04:44:33;;;;;;;5.70;0.93;;;6.80;99.90;;;;;;5029638;28;20120;-81
2022/01/05 04:46:59;;;;;;;4.05;1.00;;;6.80;99.90;;;;;;5026786;28;20034;-81
2022/01/05 04:49:24;;;;;;;4.75;1.05;;;6.80;99.90;;;;;;5023027;28;20513;-81
2022/01/05 04:51:51;;;;;;;2.90;0.82;;;6.60;99.90;;;;;;5025734;28;20022;-81
2022/01/05 04:54:17;;;;;;;4.82;1.55;;;6.50;99.90;;;;;;5025508;28;20045;-81
2022/01/05 04:56:43;;;;;;;1.48;1.13;;;6.50;99.90;;;;;;5030392;28;20028;-81
2022/01/05 04:59:09;;;;;;;3.95;1.13;;;6.40;99.90;;;;;;5026586;28;20033;-81
2022/01/05 05:01:35;;;;;;;4.57;1.67;;;6.40;99.90;;;;;;5027070;28;20061;-81
2022/01/05 05:04:00;;;;;;;1.73;0.60;;;6.40;99.90;;;;;;5027099;28;20036;-81
2022/01/05 05:06:26;;;;;;;3.45;1.13;;;6.40;99.90;;;;;;5026853;28;20025;-81
2022/01/05 05:08:52;;;;;;;1.85;0.77;;;6.40;99.90;;;;;;5028344;28;20535;-81
2022/01/05 05:11:17;;;;;;;2.97;1.23;;;6.40;99.90;;;;;;5022790;28;20014;-81
2022/01/05 05:13:43;;;;;;;4.45;1.23;;;6.40;99.90;;;;;;5024359;28;20465;-82
2022/01/05 05:16:09;;;;;;;3.22;1.00;;;6.40;99.90;;;;;;5025242;28;20083;-82
2022/01/05 05:18:35;;;;;;;3.53;0.95;;;6.40;99.90;;;;;;5025161;28;20032;-82
2022/01/05 05:21:01;;;;;;;3.45;0.90;;;6.30;99.90;;;;;;5029608;28;20021;-81
2022/01/05 05:23:27;;;;;;;1.75;1.00;;;6.30;99.90;;;;;;5026831;28;20022;-82
2022/01/05 05:25:53;;;;;;;4.47;1.23;;;6.20;99.90;;;;;;5025875;28;20021;-82
2022/01/05 05:28:19;;;;;;;4.75;1.00;;;6.10;99.90;;;;;;5023372;28;20084;-82
2022/01/05 05:30:45;;;;;;;2.17;0.90;;;6.10;99.90;;;;;;5020973;28;20442;-82
2022/01/05 05:33:10;;;;;;;5.35;0.85;;;6.10;99.90;;;;;;5022819;28;20548;-81
2022/01/05 05:35:37;;;;;;;3.20;1.10;;;6.00;99.90;;;;;;5029722;28;20029;-81
2022/01/05 05:38:03;;;;;;;2.72;1.00;;;6.00;99.90;;;;;;5024578;28;20095;-81
2022/01/05 05:40:29;;;;;;;1.50;0.90;;;6.00;99.90;;;;;;5023957;28;20030;-81
2022/01/05 05:42:55;;;;;;;3.83;0.90;;;5.90;99.90;;;;;;5027406;28;20545;-81
2022/01/05 05:45:20;;;;;;;1.63;0.77;;;5.90;99.90;;;;;;5022504;28;20880;-82
2022/01/05 05:47:46;;;;;;;3.10;0.85;;;5.90;99.90;;;;;;5023287;28;20057;-84
2022/01/05 05:50:12;;;;;;;2.40;0.90;;;5.90;99.90;;;;;;5027540;28;20528;-82
2022/01/05 05:52:38;;;;;;;2.13;1.00;;;6.00;99.90;;;;;;5025059;28;20033;-86
2022/01/05 05:55:05;;;;;;;2.35;0.95;;;5.90;99.90;;;;;;5027550;28;20051;-86
2022/01/05 05:57:31;;;;;;;2.42;0.95;;;5.90;99.90;;;;;;5025570;28;20033;-87
2022/01/05 05:59:57;;;;;;;3.00;1.35;;;5.70;99.90;;;;;;5026192;28;20025;-88
2022/01/05 06:02:22;;;;;;;3.67;0.85;;;5.70;99.90;;;;;;5029079;28;20512;-87
2022/01/05 06:04:48;;;;;;;3.47;1.48;;;5.70;99.90;;;;;;5026383;28;20029;-81
2022/01/05 06:07:14;;;;;;;3.35;1.20;;;5.60;99.90;;;;;;5023182;28;20579;-82
2022/01/05 06:09:40;;;;;;;3.70;1.08;;;5.50;99.90;;;;;;5027333;28;20044;-81
2022/01/05 06:12:06;;;;;;;1.52;1.00;;;5.40;99.90;;;;;;5024681;28;20029;-81
2022/01/05 06:14:31;;;;;;;2.90;1.30;;;5.40;99.90;;;;;;5027696;28;20029;-80
2022/01/05 06:16:57;;;;;;;2.47;1.10;;;5.30;99.90;;;;;;5025999;28;20521;-79
2022/01/05 06:19:23;;;;;;;3.15;1.08;;;5.20;99.90;;;;;;5026527;28;20601;-80
2022/01/05 06:21:50;;;;;;;6.05;1.38;;;5.20;99.90;;;;;;5025547;28;20529;-80
2022/01/05 06:24:17;;;;;;;3.72;1.10;;;5.10;99.90;;;;;;5027315;28;20120;-81
2022/01/05 06:26:43;;;;;;;3.05;0.90;;;5.10;99.90;;;;;;5025580;28;20021;-80
2022/01/05 06:29:08;;;;;;;2.00;1.00;;;5.20;99.90;;;;;;5027895;28;20033;-80
2022/01/05 06:31:34;;;;;;;3.75;1.13;;;5.10;99.90;;;;;;5027206;28;20056;-81
2022/01/05 06:34:00;;;;;;;3.53;0.90;;;4.90;99.90;;;;;;5026162;28;20033;-81
2022/01/05 06:36:26;;;;;;;4.63;1.95;;;5.10;99.90;;;;;;5026867;28;20490;-80
2022/01/05 06:38:51;;;;;;;2.20;0.90;;;5.00;99.90;;;;;;5027256;28;20510;-81
2022/01/05 06:41:17;;;;;;;4.25;1.48;;;5.10;99.90;;;;;;5024118;28;20022;-80
2022/01/05 06:43:43;;;;;;;2.30;0.88;;;5.20;99.90;;;;;;5027286;28;20036;-80
2022/01/05 06:46:08;;;;;;;4.20;1.60;;;5.20;99.90;;;;;;5027599;28;20580;-80
2022/01/05 06:48:34;;;;;;;3.92;1.13;;;5.10;99.90;;;;;;5026129;28;20033;-80
2022/01/05 06:51:00;;;;;;;3.88;1.20;;;5.00;99.90;;;;;;5026710;28;20094;-80
2022/01/05 06:53:27;;;;;;;2.22;1.00;;;4.90;99.90;;;;;;5029360;28;20041;-80
2022/01/05 06:55:53;;;;;;;4.43;1.00;;;4.80;99.90;;;;;;5025915;28;20025;-80
2022/01/05 06:58:19;;;;;;;1.52;1.00;;;4.70;99.90;;;;;;5024170;28;20041;-80
2022/01/05 07:00:44;;;;;;;5.78;1.50;;;4.80;99.90;;;;;;5024711;28;20064;-81
2022/01/05 07:03:11;;;;;;;7.28;2.08;;;4.80;99.90;;;;;;5025686;28;20032;-81
2022/01/05 07:05:40;;;;;;;6.00;1.95;;;4.70;99.90;;;;;;5025914;28;20014;-80
2022/01/05 07:08:06;;;;;;;7.10;2.25;;;4.70;99.90;;;;;;5027716;28;20045;-81
2022/01/05 07:10:32;;;;;;;2.13;1.35;;;4.70;99.90;;;;;;5027285;28;20030;-81
2022/01/05 07:12:58;;;;;;;4.68;1.73;;;4.90;99.90;;;;;;5027424;28;20087;-81
2022/01/05 07:15:25;;;;;;;4.65;1.90;;;4.90;99.90;;;;;;5028311;28;20553;-80
2022/01/05 07:17:51;;;;;;;3.05;1.65;;;4.90;99.90;;;;;;5033240;28;20021;-81
2022/01/05 07:20:17;;;;;;;1.88;1.13;;;5.00;99.90;;;;;;5031144;28;20030;-81
2022/01/05 07:22:43;;;;;;;4.85;1.33;;;5.00;99.90;;;;;;5029274;28;20498;-81
2022/01/05 07:25:09;;;;;;;3.10;1.40;;;5.00;99.90;;;;;;5028886;28;20064;-80
2022/01/05 07:27:36;;;;;;;7.38;1.35;;;5.00;99.90;;;;;;5030495;28;20056;-81
2022/01/05 07:30:04;;;;;;;5.47;1.30;;;5.10;99.90;;;;;;5031234;28;20109;-80
2022/01/05 07:32:30;;;;;;;4.05;1.15;;;5.00;99.90;;;;;;5027838;28;20025;-80
2022/01/05 07:34:56;;;;;;;2.63;0.98;;;4.90;99.90;;;;;;5028447;28;20087;-81
2022/01/05 07:37:22;;;;;;;4.32;1.65;;;4.80;99.90;;;;;;5027088;28;20072;-80
2022/01/05 07:39:48;;;;;;;4.13;1.52;;;4.90;99.90;;;;;;5028171;28;20133;-80
2022/01/05 07:42:14;;;;;;;2.63;1.38;;;4.80;99.90;;;;;;5028193;28;20038;-80
2022/01/05 07:44:40;;;;;;;7.25;1.70;;;4.80;99.90;;;;;;5032456;28;20017;-82
2022/01/05 07:47:07;;;;;;;6.22;1.73;;;4.80;99.90;;;;;;5033986;28;20099;-82
2022/01/05 07:49:33;;;;;;;5.45;1.77;;;4.90;99.90;;;;;;5035457;28;20025;-81
2022/01/05 07:51:58;;;;;;;5.28;1.90;;;4.80;99.90;;;;;;5030950;28;20056;-80
2022/01/05 07:54:24;;;;;;;3.88;1.40;;;4.90;99.90;;;;;;5029849;28;20030;-79
2022/01/05 07:56:50;;;;;;;3.10;1.40;;;4.90;99.90;;;;;;5032390;28;20037;-80
2022/01/05 07:59:15;;;;;;;4.57;1.45;;;4.80;99.90;;;;;;5026354;28;20026;-80
2022/01/05 08:01:41;;;;;;;5.63;2.13;;;4.80;99.90;;;;;;5030071;28;20494;-81
2022/01/05 08:04:07;;;;;;;2.53;1.40;;;4.70;99.90;;;;;;5031376;28;20399;-80
2022/01/05 08:06:32;;;;;;;6.85;1.77;;;4.80;99.90;;;;;;5027572;28;20029;-80
2022/01/05 08:09:00;;;;;;;5.03;2.08;;;4.70;99.90;;;;;;5030749;28;20104;-79
2022/01/05 08:11:26;;;;;;;6.53;2.40;;;4.80;99.90;;;;;;5030893;28;20025;-80
2022/01/05 08:13:52;;;;;;;2.67;1.42;;;4.90;99.90;;;;;;5029019;28;20025;-79
2022/01/05 08:16:18;;;;;;;4.57;2.58;;;4.90;99.90;;;;;;5027749;28;20486;-79
2022/01/05 08:18:45;;;;;;;8.75;2.53;;;4.90;99.90;;;;;;5026880;28;20113;-79
2022/01/05 08:21:11;;;;;;;4.63;2.42;;;4.90;99.90;;;;;;5028131;28;20030;-78
2022/01/05 08:23:37;;;;;;;4.57;2.88;;;4.90;99.90;;;;;;5031168;28;20068;-79
2022/01/05 08:26:04;;;;;;;3.88;2.03;;;5.10;99.90;;;;;;5022913;28;20029;-79
2022/01/05 08:28:30;;;;;;;2.90;1.92;;;5.10;99.90;;;;;;5028280;28;20022;-79
2022/01/05 08:30:57;;;;;;;8.60;1.98;;;5.20;99.90;;;;;;5028775;28;20029;-79
2022/01/05 08:33:22;;;;;;;3.15;1.90;;;5.20;99.90;;;;;;5027494;28;20498;-78
2022/01/05 08:35:48;;;;;;;1.40;1.30;;;5.40;99.90;;;;;;5028640;28;20029;-79
2022/01/05 08:38:15;;;;;;;3.55;1.60;;;5.60;99.90;;;;;;5028854;28;20545;-78
2022/01/05 08:40:42;;;;;;;3.72;1.58;;;5.50;99.90;;;;;;5024399;28;20083;-78
2022/01/05 08:43:11;;;;;;;1.42;1.10;;;5.60;99.90;;;;;;5026927;28;20520;-79
2022/01/05 08:45:38;;;;;;;6.35;1.58;;;5.60;99.90;;;;;;5029010;28;20029;-79
2022/01/05 08:48:05;;;;;;;5.32;1.33;;;5.40;99.90;;;;;;5029405;28;20025;-79
2022/01/05 08:50:32;;;;;;;2.65;1.30;;;5.40;99.90;;;;;;5029491;28;20120;-79
2022/01/05 08:53:00;;;;;;;5.30;2.05;;;5.40;99.90;;;;;;5028685;28;20036;-79
2022/01/05 08:55:30;;;;;;;5.53;1.77;;;5.30;99.90;;;;;;5029181;28;20033;-78
2022/01/05 08:57:56;;;;;;;6.15;1.70;;;5.30;99.90;;;;;;5028971;28;20029;-79
2022/01/05 09:00:23;;;;;;;4.90;1.80;;;5.20;99.90;;;;;;5028926;28;20021;-79
2022/01/05 09:02:49;;;;;;;3.72;1.40;;;5.30;99.90;;;;;;5031310;28;20021;-79
2022/01/05 09:05:16;;;;;;;4.97;1.50;;;5.50;99.90;;;;;;5022251;28;20108;-79
2022/01/05 09:07:42;;;;;;;2.30;1.42;;;5.50;99.90;;;;;;5027846;28;20022;-79
2022/01/05 09:10:08;;;;;;;6.13;1.67;;;5.50;99.90;;;;;;5026113;28;20083;-79
2022/01/05 09:12:34;;;;;;;4.50;1.30;;;5.60;99.90;;;;;;5027275;28;20215;-79
2022/01/05 09:15:01;;;;;;;3.50;1.48;;;5.60;99.90;;;;;;5028298;28;20022;-79
2022/01/05 09:17:27;;;;;;;2.33;0.93;;;5.60;99.90;;;;;;5026509;28;20021;-78
2022/01/05 09:19:54;;;;;;;4.18;1.30;;;5.60;99.90;;;;;;5026385;28;20034;-79
2022/01/05 09:22:20;;;;;;;3.78;1.50;;;5.70;99.90;;;;;;5027776;28;20025;-79
2022/01/05 09:24:46;;;;;;;5.93;2.20;;;5.70;99.90;;;;;;5028516;28;20110;-79
2022/01/05 09:27:12;;;;;;;3.03;1.60;;;5.80;99.90;;;;;;5028351;28;20075;-79
2022/01/05 09:29:40;;;;;;;3.17;2.63;;;5.80;99.90;;;;;;5029166;28;20040;-78
2022/01/05 09:32:08;;;;;;;3.83;1.80;;;5.90;99.90;;;;;;5025277;28;20112;-79
2022/01/05 09:34:36;;;;;;;6.75;2.60;;;6.00;99.90;;;;;;5023636;28;20033;-79
2022/01/05 09:37:09;;;;;;;4.05;1.85;;;5.80;99.90;;;;;;5026547;28;20529;-80
2022/01/05 09:42:19;;;;;;;4.03;1.77;;;5.70;99.90;;;;;;5022755;28;20032;-80
2022/01/05 09:44:48;;;;;;;10.57;3.47;;;5.70;99.90;;;;;;5029663;28;20029;-79
2022/01/05 09:47:39;;;;;;;7.45;1.73;;;5.70;99.90;;;;;;5026571;28;20021;-79
2022/01/05 09:50:10;;;;;;;6.45;1.77;;;5.60;99.90;;;;;;5018347;28;20072;-80
2022/01/05 09:52:38;;;;;;;2.60;1.50;;;5.60;99.90;;;;;;5021934;28;20025;-79
2022/01/05 09:55:06;;;;;;;4.82;1.67;;;5.80;99.90;;;;;;5027247;28;20043;-79
2022/01/05 09:57:32;;;;;;;6.38;1.90;;;5.70;99.90;;;;;;5025983;28;20020;-79
2022/01/05 09:59:59;;;;;;;3.33;1.85;;;5.80;99.90;;;;;;5024974;28;20037;-79
2022/01/05 10:02:26;;;;;;;3.10;1.27;;;5.90;99.90;;;;;;5028049;28;20021;-79
2022/01/05 10:04:52;;;;;;;4.72;1.50;;;5.90;99.90;;;;;;5027736;28;20025;-79
2022/01/05 10:07:18;;;;;;;3.42;1.30;;;5.80;99.90;;;;;;5027120;28;20033;-79
2022/01/05 10:09:45;;;;;;;3.83;1.40;;;5.90;99.90;;;;;;5026252;28;20029;-79
2022/01/05 10:12:13;;;;;;;4.93;1.80;;;5.90;99.90;;;;;;5028214;28;20111;-78
2022/01/05 10:14:43;;;;;;;4.25;2.05;;;5.90;99.90;;;;;;5025990;28;20033;-79
2022/01/05 10:17:11;;;;;;;5.93;2.22;;;5.80;99.90;;;;;;5025852;28;20033;-79
2022/01/05 10:19:38;;;;;;;4.68;1.83;;;5.90;99.90;;;;;;5025743;28;20071;-79
2022/01/05 10:22:24;;;;;;;4.00;2.00;;;6.00;99.90;;;;;;5026643;28;20093;-79
2022/01/05 10:24:50;;;;;;;4.72;2.05;;;6.00;99.90;;;;;;5026354;28;20021;-79
2022/01/05 10:27:21;;;;;;;4.18;1.63;;;6.10;99.90;;;;;;5027655;28;20029;-79
2022/01/05 10:29:52;;;;;;;4.20;2.00;;;6.10;99.90;;;;;;5028052;28;20034;-79
2022/01/05 10:32:18;;;;;;;6.65;2.20;;;6.10;99.90;;;;;;5042482;28;20030;-78
2022/01/05 10:35:19;;;;;;;13.98;2.08;;;6.00;99.90;;;;;;5026292;28;20111;-78
2022/01/05 10:37:55;;;;;;;8.77;1.85;;;6.10;99.90;;;;;;5029879;28;20106;-81
2022/01/05 10:40:22;;;;;;;5.88;1.92;;;6.20;99.90;;;;;;5017376;28;20144;-79
2022/01/05 10:42:54;;;;;;;13.40;2.20;;;6.30;99.90;;;;;;5023683;28;20039;-78
2022/01/05 10:45:22;;;;;;;9.30;2.60;;;6.40;99.90;;;;;;5026697;28;20081;-78
2022/01/05 10:48:15;;;;;;;3.80;2.15;;;6.30;99.90;;;;;;5023336;28;20045;-78
2022/01/05 10:50:42;;;;;;;4.20;2.00;;;6.30;99.90;;;;;;5028876;28;20030;-79
2022/01/05 10:53:08;;;;;;;6.53;2.17;;;6.30;99.90;;;;;;5029604;28;20025;-78
2022/01/05 10:55:44;;;;;;;3.17;2.20;;;6.30;99.90;;;;;;5026571;28;20029;-79
2022/01/05 10:58:12;;;;;;;4.60;2.13;;;6.40;99.90;;;;;;5031209;28;20034;-78
2022/01/05 11:00:42;;;;;;;6.72;2.35;;;6.30;99.90;;;;;;5029451;28;20032;-78
2022/01/05 11:03:24;;;;;;;4.43;2.30;;;6.40;99.90;;;;;;5031106;28;20017;-78
2022/01/05 11:06:08;;;;;;;5.15;2.22;;;6.60;99.90;;;;;;5028636;28;20021;-79
2022/01/05 11:08:58;;;;;;;4.97;2.83;;;6.60;99.90;;;;;;5030862;28;20039;-78
2022/01/05 11:11:42;;;;;;;6.95;2.53;;;6.60;99.90;;;;;;5028040;28;20029;-78
2022/01/05 11:14:18;;;;;;;6.75;2.38;;;6.60;99.90;;;;;;5027513;28;20053;-78
2022/01/05 11:16:47;;;;;;;3.90;1.92;;;6.70;99.90;;;;;;5028936;28;20037;-78
2022/01/05 11:19:13;;;;;;;6.78;2.75;;;6.50;99.90;;;;;;5023160;28;20046;-78
2022/01/05 11:21:53;;;;;;;6.65;2.55;;;6.50;99.90;;;;;;5030254;28;20040;-78
2022/01/05 11:24:19;;;;;;;6.68;2.55;;;6.50;99.90;;;;;;5030551;28;20029;-78
2022/01/05 11:26:45;;;;;;;4.93;2.28;;;6.60;99.90;;;;;;5030452;28;20033;-78
2022/01/05 11:29:12;;;;;;;8.82;2.42;;;6.60;99.90;;;;;;5030138;28;20025;-78
2022/01/05 11:31:37;;;;;;;6.53;1.60;;;6.70;99.90;;;;;;5027696;28;20038;-78
2022/01/05 11:34:03;;;;;;;5.05;2.38;;;6.70;99.90;;;;;;5027788;28;20029;-78
2022/01/05 11:36:30;;;;;;;4.57;1.90;;;6.50;99.90;;;;;;5029359;28;20030;-78
2022/01/05 11:38:55;;;;;;;4.82;2.10;;;6.60;99.90;;;;;;5029869;28;20038;-78
2022/01/05 11:41:22;;;;;;;5.90;2.33;;;6.60;99.90;;;;;;5030856;28;20018;-79
2022/01/05 11:43:48;;;;;;;5.88;2.00;;;6.60;99.90;;;;;;5028398;28;20025;-79
2022/01/05 11:46:19;;;;;;;11.05;2.35;;;6.60;99.90;;;;;;5030335;28;20032;-79
2022/01/05 11:49:24;;;;;;;4.25;1.90;;;6.60;99.90;;;;;;5030657;28;20033;-78
2022/01/05 11:51:52;;;;;;;2.50;1.55;;;6.60;99.90;;;;;;4979375;28;20038;-79
2022/01/05 11:54:27;;;;;;;5.72;2.10;;;6.70;99.90;;;;;;5001492;28;20117;-79
2022/01/05 11:57:10;;;;;;;4.35;1.42;;;6.80;99.90;;;;;;4988776;28;20136;-79
2022/01/05 11:59:41;;;;;;;3.55;1.85;;;6.90;99.90;;;;;;4993394;28;20061;-79
2022/01/05 12:02:09;;;;;;;4.22;1.70;;;6.70;99.90;;;;;;4973871;28;20038;-81
2022/01/05 12:04:56;;;;;;;3.08;1.70;;;6.70;99.90;;;;;;4980863;28;20184;-82
2022/01/05 12:07:42;;;;;;;3.03;1.50;;;6.80;99.90;;;;;;4991548;28;20284;-79
2022/01/05 12:10:22;;;;;;;3.58;1.35;;;6.90;99.90;;;;;;4979135;28;20077;-78
2022/01/05 12:13:05;;;;;;;2.50;1.90;;;6.80;99.90;;;;;;4979336;28;20030;-79
2022/01/05 12:15:41;;;;;;;5.25;1.58;;;6.90;99.90;;;;;;4987680;28;20034;-78
2022/01/05 12:18:07;;;;;;;4.07;1.27;;;7.00;99.90;;;;;;4992261;28;20029;-78
2022/01/05 12:20:35;;;;;;;3.13;1.70;;;7.10;99.90;;;;;;4992767;28;20042;-81
2022/01/05 12:23:24;;;;;;;5.05;1.77;;;7.10;99.90;;;;;;4994265;28;20077;-81
2022/01/05 12:26:07;;;;;;;5.43;1.17;;;7.10;99.90;;;;;;4993758;28;20061;-79
2022/01/05 12:28:36;;;;;;;4.53;1.20;;;7.10;99.90;;;;;;5020735;28;20026;-78
2022/01/05 12:31:06;;;;;;;3.20;1.50;;;7.00;99.90;;;;;;5028074;28;20029;-79
2022/01/05 12:33:45;;;;;;;5.78;1.75;;;7.00;99.90;;;;;;5029294;28;20028;-78
2022/01/05 12:36:14;;;;;;;3.47;1.55;;;7.10;99.90;;;;;;5025248;28;20040;-79
2022/01/05 12:38:48;;;;;;;6.65;2.50;;;7.20;99.90;;;;;;5025109;28;20033;-78
2022/01/05 12:41:36;;;;;;;6.38;1.75;;;7.10;99.90;;;;;;5028674;28;20023;-78
2022/01/05 12:44:11;;;;;;;5.93;1.58;;;7.20;99.90;;;;;;5028312;28;20246;-78
2022/01/05 12:46:44;;;;;;;5.95;1.75;;;7.40;99.90;;;;;;5035921;28;20030;-78
2022/01/05 12:49:18;;;;;;;4.75;2.50;;;7.50;99.90;;;;;;5024201;28;20060;-78
2022/01/05 12:51:51;;;;;;;10.25;2.70;;;7.50;99.90;;;;;;5026629;28;20511;-78
2022/01/05 12:54:22;;;;;;;4.55;2.45;;;7.50;99.90;;;;;;5026596;28;20172;-79
2022/01/05 12:57:02;;;;;;;3.50;1.60;;;7.50;99.90;;;;;;5026172;28;20063;-79
2022/01/05 12:59:35;;;;;;;6.47;2.60;;;7.30;99.90;;;;;;5030427;28;20112;-79
2022/01/05 13:02:07;;;;;;;5.25;1.90;;;7.30;99.90;;;;;;5027586;28;20108;-79
2022/01/05 13:04:35;;;;;;;3.72;1.58;;;7.30;99.90;;;;;;5027276;28;20113;-79